Grand Junction, CO (81501)

6:46 AM MDT on March 26, 2017 (GMT -0600)
MAU407 | | Change Station

Elev 4601 ft 39.07 °N, 108.56 °W | Updated 39 minutes ago

Overcast
Overcast
50.0 °F
Feels Like 49 °F
N
4.0
Wind Variable Wind from West
Gusts 8.0 mph

Today
High -- | Low -- °F
--% Chance of Precip.
Yesterday
High -- | Low -- °F
Precip. -- in
Pressure 29.78 in
Visibility 10.0 miles
Clouds Few 5000 ft
Overcast 6000 ft
Windchill 49 °F
Dew Point 37 °F
Humidity 61%
Rainfall in
Snow Depth Not available.
7:07 AM 7:32 PM
Waning Crescent, 3% visible
METAR KGJT 261153Z 35008KT 10SM FEW050 OVC060 08/03 A2989 RMK AO2 SLP085 60000 T00830028 10094 20078 53007
Pressure 29.78 in
Visibility 10.0 miles
Clouds Few 5000 ft
Overcast 6000 ft
Windchill 49 °F
Dew Point 37 °F
Humidity 61%
Rainfall in
Snow Depth Not available.
7:07 AM 7:32 PM
Waning Crescent, 3% visible
METAR KGJT 261153Z 35008KT 10SM FEW050 OVC060 08/03 A2989 RMK AO2 SLP085 60000 T00830028 10094 20078 53007

Get Severe Weather Alerts

Thanks for signing up!

Be on the lookout for a verification email in your inbox.

You'll start receiving the daily forecast at 8 AM.

×

10-Day Weather Forecast

Almanac

Astronomy

Mar. 26, 2017 Rise Set
Actual Time
Civil Twilight
Nautical Twilight
Astronomical Twilight
Moon
Length of Visible Light
Length of Day
Tomorrow will be .
, % of the Moon is Illuminated

Today's Extremes

State Highs State Lows

Community

WunderPhotos

Upload Photos

1,962,540 photos uploaded!

WunderBlog® & News

Nearby

Air Quality

  Air Quality AQ Index Pollutant
Not available.

Snow Depth

Station Depth Elevation

Earthquake Activity

City Distance Mag. Time & Date
Minimum magnitude displayed is 2.5.

Earthquake Activity

City Distance Mag. Time & Date
Minimum magnitude displayed is 2.5.

Coastal Water Temperatures

Place Temperature

Stations

Nearby Weather Stations

Station Location Temp. Windchill Dew Point Humidity Wind Precip. Elev Updated Type
                   

Watches & Warnings

There are currently no watches in effect.